Derby, Connecticut
Current Conditions -  °F | °C
As of 11:52 PM on Saturday 22 Nov 2014 (Local Time) from KBDR Reporting Station
Scattered Clouds Scattered Clouds  
Wind Chill: 38°   Ceiling: Unl
Heat Index: 45°   Visibility: 10mi
Dew Point: 28°   Wind: 15mph
Humidity: 52%   Direction: 240°WSW
Pressure: 30.18"   Gusts: 23mph
Location:  41.32°N, 73.09°W
Report Text: KBDR 230452Z 24013G20KT 10SM SCT075 07/M02 A3018 RMK AO2 SLP219 T00721022 400781044
Loading
Personal Weather Stations






























Interactive Weather Map New forecast layout! Learn more

10-Day Weather Forecast

Advertisements
Track Severe Weather on mobile